createdAt,value
2019-05-22T00:00:58.482Z,70.34
2019-05-22T00:03:36.424Z,70.99
2019-05-22T00:06:06.616Z,71.59
2019-05-22T00:08:37.540Z,72.24
2019-05-22T00:11:08.892Z,72.40
2019-05-22T00:13:40.427Z,72.62
2019-05-22T00:16:12.359Z,72.52
2019-05-22T00:18:42.938Z,71.87
2019-05-22T00:21:13.521Z,72.17
2019-05-22T00:23:45.042Z,72.77
2019-05-22T00:26:15.342Z,73.22
2019-05-22T00:28:45.755Z,73.61
2019-05-22T00:31:16.453Z,72.59
2019-05-22T00:33:46.252Z,73.01
2019-05-22T00:36:17.668Z,73.40
2019-05-22T00:38:48.441Z,74.18
2019-05-22T00:41:20.694Z,74.45
2019-05-22T00:43:53.914Z,74.50
2019-05-22T00:46:25.374Z,74.30
2019-05-22T00:48:55.049Z,74.94
2019-05-22T00:51:29.617Z,74.97
2019-05-22T00:54:01.484Z,74.86
2019-05-22T00:56:44.875Z,74.69
2019-05-22T00:59:29.291Z,74.30
2019-05-22T01:02:04.662Z,74.37
2019-05-22T01:04:37.146Z,74.58
2019-05-22T01:07:18.575Z,75.03
2019-05-22T01:09:52.465Z,75.39
2019-05-22T01:12:30.015Z,75.79
2019-05-22T01:15:07.323Z,76.26
2019-05-22T01:17:38.350Z,76.46
2019-05-22T01:20:11.458Z,76.28
2019-05-22T01:22:43.067Z,76.58
2019-05-22T01:25:17.066Z,76.79
2019-05-22T01:27:48.657Z,76.90
2019-05-22T01:30:24.055Z,77.02
2019-05-22T01:32:56.579Z,77.23
2019-05-22T01:35:31.334Z,77.51
2019-05-22T01:38:02.180Z,77.86
2019-05-22T01:40:50.132Z,78.04
2019-05-22T01:43:26.571Z,78.16
2019-05-22T01:45:59.729Z,77.81
2019-05-22T01:48:38.454Z,78.12
2019-05-22T01:51:10.761Z,78.63
2019-05-22T01:53:44.417Z,78.93
2019-05-22T01:56:17.285Z,79.47
2019-05-22T01:58:47.462Z,80.13
2019-05-22T02:01:20.433Z,80.65
2019-05-22T02:03:51.888Z,81.03
2019-05-22T02:06:25.133Z,81.12
2019-05-22T02:09:17.554Z,80.97
2019-05-22T02:11:49.662Z,81.03
2019-05-22T02:14:22.608Z,81.31
2019-05-22T02:16:57.187Z,81.79
2019-05-22T02:19:26.167Z,82.36
2019-05-22T02:21:56.574Z,82.90
2019-05-22T02:24:28.805Z,83.89
2019-05-22T02:26:59.472Z,84.34
2019-05-22T02:29:30.286Z,84.74
2019-05-22T02:32:03.270Z,85.42
2019-05-22T02:34:34.034Z,85.74
2019-05-22T02:37:05.403Z,85.93
2019-05-22T02:39:36.490Z,86.02
2019-05-22T02:42:13.314Z,85.88
2019-05-22T02:44:44.182Z,85.89
2019-05-22T02:47:20.125Z,85.83
2019-05-22T02:49:48.858Z,85.86
2019-05-22T02:52:20.848Z,85.59
2019-05-22T02:54:50.734Z,85.51
2019-05-22T02:57:20.804Z,85.65
2019-05-22T02:59:50.941Z,85.69
2019-05-22T03:02:23.563Z,85.53
2019-05-22T03:05:09.683Z,85.53
2019-05-22T03:07:42.172Z,85.57
2019-05-22T03:10:14.644Z,85.77
2019-05-22T03:12:46.126Z,85.82
2019-05-22T03:15:20.472Z,85.75
2019-05-22T03:17:55.549Z,85.67
2019-05-22T03:20:29.331Z,85.51
2019-05-22T03:23:18.659Z,85.35
2019-05-22T03:25:49.081Z,85.14
2019-05-22T03:28:19.783Z,85.03
2019-05-22T03:30:52.559Z,84.89
2019-05-22T03:33:23.413Z,84.98
2019-05-22T03:36:10.195Z,84.94
2019-05-22T03:38:43.164Z,85.08
2019-05-22T03:41:17.112Z,85.24
2019-05-22T03:43:48.868Z,85.37
2019-05-22T03:46:36.346Z,85.87
2019-05-22T03:49:27.496Z,86.87
2019-05-22T03:51:41.785Z,87.77
2019-05-22T03:54:13.134Z,87.82
2019-05-22T03:56:44.543Z,88.01
2019-05-22T03:59:15.623Z,88.30
2019-05-22T04:01:47.341Z,88.53
2019-05-22T04:04:34.361Z,88.64
2019-05-22T04:07:07.240Z,88.72
2019-05-22T04:09:40.154Z,88.91
2019-05-22T04:12:12.367Z,88.67
2019-05-22T04:14:43.867Z,88.54
2019-05-22T04:17:15.438Z,88.67
2019-05-22T04:19:50.308Z,88.83
2019-05-22T04:22:19.367Z,88.92
2019-05-22T04:24:50.492Z,88.72
2019-05-22T04:27:21.972Z,89.00
2019-05-22T04:29:54.970Z,89.00
2019-05-22T04:32:29.052Z,89.07
2019-05-22T04:34:59.326Z,88.71
2019-05-22T04:37:31.317Z,88.70
2019-05-22T04:40:21.287Z,88.96
2019-05-22T04:42:52.765Z,88.67
2019-05-22T04:45:23.831Z,88.41
2019-05-22T04:48:04.215Z,88.18
2019-05-22T04:50:35.595Z,88.12
2019-05-22T04:53:06.225Z,88.02
2019-05-22T04:55:37.338Z,87.97
2019-05-22T04:58:09.355Z,88.02
2019-05-22T05:00:40.324Z,87.87
2019-05-22T05:03:12.193Z,87.90
2019-05-22T05:05:45.234Z,87.92
2019-05-22T05:08:16.336Z,87.87
2019-05-22T05:10:52.410Z,87.70
2019-05-22T05:13:23.437Z,87.62
2019-05-22T05:15:54.024Z,87.18
2019-05-22T05:18:25.160Z,86.89
2019-05-22T05:20:56.025Z,86.99
2019-05-22T05:23:27.263Z,86.50
2019-05-22T05:25:57.638Z,85.99
2019-05-22T05:28:29.052Z,85.38
2019-05-22T05:30:59.751Z,85.12
2019-05-22T05:33:31.325Z,84.45
2019-05-22T05:36:02.244Z,84.00
2019-05-22T05:38:39.864Z,83.57
2019-05-22T05:41:11.782Z,83.13
2019-05-22T05:43:42.849Z,82.91
2019-05-22T05:46:14.784Z,82.43
2019-05-22T05:48:45.891Z,81.66
2019-05-22T05:51:22.970Z,81.52
2019-05-22T05:54:07.395Z,81.09
2019-05-22T05:56:39.977Z,79.77
2019-05-22T05:59:13.016Z,79.90
2019-05-22T06:01:48.898Z,79.93
2019-05-22T06:04:34.068Z,79.49
2019-05-22T06:07:02.490Z,79.44
2019-05-22T06:09:36.595Z,78.68
2019-05-22T06:12:08.781Z,76.01
2019-05-22T06:14:41.867Z,75.39
2019-05-22T06:17:45.623Z,75.20
2019-05-22T06:20:20.180Z,73.66
2019-05-22T06:23:30.549Z,74.36
2019-05-22T06:26:02.589Z,74.48
2019-05-22T06:28:39.267Z,72.21
2019-05-22T06:31:17.262Z,72.10
2019-05-22T06:33:48.785Z,72.46
2019-05-22T06:36:22.078Z,72.72
2019-05-22T06:39:01.193Z,72.64
2019-05-22T06:41:33.639Z,71.93
2019-05-22T06:44:34.401Z,71.67
2019-05-22T06:47:06.741Z,71.56
2019-05-22T06:49:40.697Z,71.40
2019-05-22T06:52:13.041Z,71.48
2019-05-22T06:54:44.300Z,71.53
2019-05-22T06:57:16.579Z,71.43
2019-05-22T07:00:10.702Z,71.13
2019-05-22T07:02:23.740Z,70.36
2019-05-22T07:04:54.957Z,70.66
2019-05-22T07:07:26.938Z,71.00
2019-05-22T07:09:58.235Z,69.95
2019-05-22T07:12:29.677Z,69.39
2019-05-22T07:15:11.443Z,68.50
2019-05-22T07:17:42.317Z,68.30
2019-05-22T07:20:17.268Z,69.12
2019-05-22T07:22:48.170Z,70.17
2019-05-22T07:25:20.644Z,68.81
2019-05-22T07:27:51.757Z,67.78
2019-05-22T07:30:24.043Z,68.45
2019-05-22T07:32:54.970Z,68.07
2019-05-22T07:35:44.147Z,68.00
2019-05-22T07:38:00.302Z,66.90
2019-05-22T07:40:31.617Z,66.88
2019-05-22T07:43:02.213Z,65.84
2019-05-22T07:45:34.693Z,65.93
2019-05-22T07:48:07.552Z,66.86
2019-05-22T07:50:40.059Z,65.77
2019-05-22T07:53:11.440Z,64.80
2019-05-22T07:55:42.128Z,64.59
2019-05-22T07:58:18.763Z,63.57
2019-05-22T08:00:56.129Z,63.99
2019-05-22T08:03:27.653Z,63.42
2019-05-22T08:06:00.431Z,61.74
2019-05-22T08:08:33.849Z,61.20
2019-05-22T08:11:05.842Z,62.44
2019-05-22T08:13:38.395Z,59.84
2019-05-22T08:16:11.598Z,61.04
2019-05-22T08:18:43.340Z,60.91
2019-05-22T08:21:14.190Z,61.75
2019-05-22T08:23:45.927Z,61.10
2019-05-22T08:26:17.053Z,58.63
2019-05-22T08:28:48.314Z,59.46
2019-05-22T08:31:22.180Z,58.97
2019-05-22T08:33:53.081Z,59.42
2019-05-22T08:36:23.645Z,58.46
2019-05-22T08:38:54.385Z,56.11
2019-05-22T08:41:29.479Z,54.54
2019-05-22T08:44:15.966Z,53.67
2019-05-22T08:46:37.934Z,53.39
2019-05-22T08:49:09.018Z,51.29
2019-05-22T08:51:42.717Z,49.94
2019-05-22T08:54:15.765Z,50.58
2019-05-22T08:56:51.301Z,50.52
2019-05-22T08:59:23.010Z,48.03
2019-05-22T09:01:55.124Z,47.00
2019-05-22T09:04:27.094Z,46.52
2019-05-22T09:06:57.732Z,45.56
2019-05-22T09:09:28.490Z,43.89
2019-05-22T09:11:59.220Z,42.80
2019-05-22T09:14:29.850Z,43.21
2019-05-22T09:17:00.558Z,42.46
2019-05-22T09:19:31.848Z,42.98
2019-05-22T09:22:05.513Z,43.30
2019-05-22T09:24:37.111Z,41.26
2019-05-22T09:27:09.368Z,41.41
2019-05-22T09:29:39.979Z,40.07
2019-05-22T09:32:10.741Z,38.08
2019-05-22T09:34:41.461Z,38.45
2019-05-22T09:37:12.099Z,39.07
2019-05-22T09:39:42.816Z,39.60
2019-05-22T09:42:17.066Z,39.09
2019-05-22T09:44:48.949Z,38.98
2019-05-22T09:47:23.983Z,37.83
2019-05-22T09:49:54.725Z,38.87
2019-05-22T09:52:26.541Z,40.13
2019-05-22T09:54:58.584Z,39.32
2019-05-22T09:57:29.291Z,38.13
2019-05-22T10:00:02.555Z,38.10
2019-05-22T10:02:34.032Z,43.38
2019-05-22T10:05:06.903Z,41.64
2019-05-22T10:07:57.130Z,41.38
2019-05-22T10:10:13.339Z,38.96
2019-05-22T10:12:45.636Z,39.45
2019-05-22T10:15:16.369Z,40.77
2019-05-22T10:17:51.392Z,39.73
2019-05-22T10:20:24.097Z,38.63
2019-05-22T10:22:54.650Z,37.98
2019-05-22T10:25:25.032Z,39.87
2019-05-22T10:27:59.247Z,36.29
2019-05-22T10:30:28.850Z,35.37
2019-05-22T10:32:59.253Z,33.62
2019-05-22T10:35:30.462Z,31.39
2019-05-22T10:38:01.749Z,31.23
2019-05-22T10:40:35.264Z,30.49
2019-05-22T10:43:06.160Z,28.72
2019-05-22T10:45:37.611Z,27.67
2019-05-22T10:48:10.622Z,28.36
2019-05-22T10:50:42.125Z,27.73
2019-05-22T10:53:30.330Z,27.23
2019-05-22T10:55:46.637Z,28.73
2019-05-22T10:58:17.365Z,26.19
2019-05-22T11:00:48.788Z,26.07
2019-05-22T11:03:20.680Z,24.48
2019-05-22T11:06:05.631Z,24.49
2019-05-22T11:08:23.695Z,24.08
2019-05-22T11:10:55.923Z,23.93
2019-05-22T11:13:26.584Z,25.74
2019-05-22T11:15:59.048Z,25.21
2019-05-22T11:18:29.552Z,24.94
2019-05-22T11:21:00.403Z,24.80
2019-05-22T11:23:31.153Z,26.53
2019-05-22T11:26:01.908Z,25.48
2019-05-22T11:28:35.981Z,25.47
2019-05-22T11:31:06.166Z,24.72
2019-05-22T11:33:36.779Z,24.50
2019-05-22T11:36:08.336Z,23.08
2019-05-22T11:38:39.004Z,22.77
2019-05-22T11:41:12.103Z,22.51
2019-05-22T11:43:43.063Z,24.56
2019-05-22T11:46:14.053Z,27.82
2019-05-22T11:48:44.392Z,25.59
2019-05-22T11:51:14.894Z,23.62
2019-05-22T11:53:45.510Z,23.85
2019-05-22T11:56:16.191Z,23.58
2019-05-22T11:58:46.962Z,26.03
2019-05-22T12:01:18.305Z,27.72
2019-05-22T12:03:50.005Z,27.43
2019-05-22T12:06:21.100Z,27.64
2019-05-22T12:08:52.110Z,26.11
2019-05-22T12:11:22.860Z,27.09
2019-05-22T12:13:54.651Z,28.53
2019-05-22T12:16:25.137Z,26.90
2019-05-22T12:18:58.716Z,24.67
2019-05-22T12:21:28.127Z,27.38
2019-05-22T12:23:58.757Z,24.83
2019-05-22T12:26:30.573Z,24.16
2019-05-22T12:29:01.404Z,23.16
2019-05-22T12:31:32.246Z,23.08
2019-05-22T12:34:03.313Z,23.08
2019-05-22T12:36:34.501Z,22.40
2019-05-22T12:39:08.464Z,22.90
2019-05-22T12:41:40.210Z,24.85
2019-05-22T12:44:11.518Z,26.69
2019-05-22T12:46:42.554Z,28.08
2019-05-22T12:49:14.396Z,26.91
2019-05-22T12:51:46.557Z,26.66
2019-05-22T12:54:17.899Z,26.34
2019-05-22T12:56:49.347Z,28.67
2019-05-22T12:59:20.534Z,28.79
2019-05-22T13:01:53.269Z,25.44
2019-05-22T13:04:24.837Z,23.44
2019-05-22T13:06:55.488Z,21.83
2019-05-22T13:09:26.508Z,20.63
2019-05-22T13:11:57.505Z,21.26
2019-05-22T13:14:28.386Z,23.41
2019-05-22T13:17:01.480Z,25.82
2019-05-22T13:19:34.278Z,26.79
2019-05-22T13:22:08.822Z,28.36
2019-05-22T13:24:39.723Z,26.47
2019-05-22T13:27:12.171Z,23.99
2019-05-22T13:29:43.399Z,23.04
2019-05-22T13:32:17.846Z,21.98
2019-05-22T13:34:48.713Z,21.68
2019-05-22T13:37:19.582Z,21.01
2019-05-22T13:39:51.733Z,20.13
2019-05-22T13:42:23.016Z,20.31
2019-05-22T13:44:54.400Z,20.19
2019-05-22T13:47:25.210Z,24.05
2019-05-22T13:49:55.648Z,26.05
2019-05-22T13:52:26.133Z,26.51
2019-05-22T13:54:57.907Z,26.68
2019-05-22T13:57:29.378Z,23.91
2019-05-22T14:00:00.045Z,22.33
2019-05-22T14:02:30.847Z,20.25
2019-05-22T14:05:02.613Z,21.72
2019-05-22T14:07:33.241Z,20.69
2019-05-22T14:10:08.852Z,20.46
2019-05-22T14:12:39.777Z,20.91
2019-05-22T14:15:11.441Z,21.10
2019-05-22T14:17:42.262Z,20.29
2019-05-22T14:20:14.297Z,20.58
2019-05-22T14:22:44.769Z,18.96
2019-05-22T14:25:16.098Z,18.13
2019-05-22T14:27:46.956Z,17.05
2019-05-22T14:30:19.393Z,19.35
2019-05-22T14:32:50.228Z,21.00
2019-05-22T14:35:24.263Z,22.46
2019-05-22T14:37:53.907Z,24.56
2019-05-22T14:40:27.137Z,22.47
2019-05-22T14:42:58.505Z,23.08
2019-05-22T14:45:29.630Z,21.01
2019-05-22T14:48:00.983Z,20.95
2019-05-22T14:50:34.339Z,21.05
2019-05-22T14:53:05.330Z,22.36
2019-05-22T14:55:37.854Z,23.29
2019-05-22T14:58:09.727Z,22.72
2019-05-22T15:00:40.650Z,21.19
2019-05-22T15:03:12.322Z,20.02
2019-05-22T15:05:43.130Z,19.38
2019-05-22T15:08:13.905Z,20.79
2019-05-22T15:10:45.221Z,18.78
2019-05-22T15:13:16.537Z,21.23
2019-05-22T15:15:48.995Z,21.01
2019-05-22T15:18:19.654Z,20.92
2019-05-22T15:20:57.734Z,21.03
2019-05-22T15:23:28.966Z,20.67
2019-05-22T15:26:01.690Z,21.61
2019-05-22T15:28:32.532Z,21.52
2019-05-22T15:31:04.575Z,21.34
2019-05-22T15:33:37.357Z,19.54
2019-05-22T15:36:10.587Z,20.60
2019-05-22T15:38:44.282Z,20.13
2019-05-22T15:41:15.792Z,21.47
2019-05-22T15:43:52.509Z,23.25
2019-05-22T15:46:22.680Z,22.66
2019-05-22T15:48:54.486Z,22.41
2019-05-22T15:51:29.446Z,22.92
2019-05-22T15:54:02.826Z,23.62
2019-05-22T15:56:36.648Z,24.76
2019-05-22T15:59:09.411Z,25.88
2019-05-22T16:01:40.224Z,26.71
2019-05-22T16:04:13.317Z,27.74
2019-05-22T16:06:43.916Z,28.55
2019-05-22T16:09:16.646Z,29.58
2019-05-22T16:11:51.333Z,29.89
2019-05-22T16:14:22.414Z,30.43
2019-05-22T16:16:54.504Z,31.26
2019-05-22T16:19:27.986Z,31.45
2019-05-22T16:22:01.656Z,32.14
2019-05-22T16:24:32.286Z,31.99
2019-05-22T16:27:04.556Z,32.15
2019-05-22T16:29:40.604Z,31.12
2019-05-22T16:32:12.508Z,31.07
2019-05-22T16:34:42.885Z,31.66
2019-05-22T16:37:14.642Z,31.60
2019-05-22T16:39:44.892Z,31.96
2019-05-22T16:42:17.020Z,32.22
2019-05-22T16:44:48.821Z,32.73
2019-05-22T16:47:22.066Z,32.34
2019-05-22T16:49:54.211Z,33.05
2019-05-22T16:52:27.484Z,33.08
2019-05-22T16:55:01.644Z,33.21
2019-05-22T16:57:33.962Z,33.13
2019-05-22T17:00:10.011Z,33.59
2019-05-22T17:02:42.880Z,33.43
2019-05-22T17:05:15.958Z,33.59
2019-05-22T17:07:47.121Z,33.62
2019-05-22T17:10:17.978Z,34.00
2019-05-22T17:12:49.310Z,34.45
2019-05-22T17:15:21.858Z,34.87
2019-05-22T17:17:53.418Z,35.01
2019-05-22T17:23:15.078Z,35.23
2019-05-22T17:25:46.472Z,35.88
2019-05-22T17:28:18.751Z,35.37
2019-05-22T17:30:50.506Z,34.56
2019-05-22T17:33:21.985Z,35.57
2019-05-22T17:35:56.127Z,33.90
2019-05-22T17:38:30.953Z,33.95
2019-05-22T17:41:03.728Z,34.76
2019-05-22T17:43:37.326Z,34.77
2019-05-22T17:46:08.239Z,34.67
2019-05-22T17:48:40.014Z,35.64
2019-05-22T17:51:10.941Z,35.18
2019-05-22T17:53:41.087Z,35.58
2019-05-22T17:56:11.676Z,35.29
2019-05-22T17:58:42.454Z,35.81
2019-05-22T18:01:14.034Z,35.30
2019-05-22T18:03:44.801Z,36.06
2019-05-22T18:06:15.547Z,35.64
2019-05-22T18:08:46.090Z,36.51
2019-05-22T18:11:18.366Z,37.19
2019-05-22T18:14:04.378Z,36.46
2019-05-22T18:16:35.634Z,36.72
2019-05-22T18:19:09.079Z,37.93
2019-05-22T18:21:40.318Z,38.49
2019-05-22T18:24:10.692Z,38.88
2019-05-22T18:26:40.788Z,39.64
2019-05-22T18:29:11.075Z,40.68
2019-05-22T18:31:41.700Z,39.83
2019-05-22T18:34:12.070Z,41.14
2019-05-22T18:36:42.450Z,42.46
2019-05-22T18:39:14.300Z,45.15
2019-05-22T18:41:44.513Z,43.68
2019-05-22T18:44:14.856Z,47.21
2019-05-22T18:46:47.279Z,45.51
2019-05-22T18:49:18.866Z,47.40
2019-05-22T18:51:49.850Z,46.44
2019-05-22T18:54:21.786Z,47.27
2019-05-22T18:56:52.067Z,49.56
2019-05-22T18:59:22.477Z,50.57
2019-05-22T19:01:53.261Z,50.67
2019-05-22T19:04:24.975Z,51.30
2019-05-22T19:06:56.148Z,51.07
2019-05-22T19:09:27.029Z,51.35
2019-05-22T19:11:59.206Z,51.80
2019-05-22T19:14:29.934Z,52.28
2019-05-22T19:17:01.123Z,53.29
2019-05-22T19:19:31.533Z,53.23
2019-05-22T19:22:01.916Z,52.75
2019-05-22T19:24:32.379Z,53.91
2019-05-22T19:27:02.465Z,55.13
2019-05-22T19:29:32.942Z,54.31
2019-05-22T19:32:03.097Z,54.97
2019-05-22T19:34:34.705Z,54.95
2019-05-22T19:37:05.098Z,54.64
2019-05-22T19:39:36.121Z,54.84
2019-05-22T19:42:08.063Z,55.55
2019-05-22T19:44:38.027Z,56.33
2019-05-22T19:47:09.167Z,56.08
2019-05-22T19:49:39.203Z,56.89
2019-05-22T19:52:10.766Z,57.91
2019-05-22T19:54:41.598Z,58.18
2019-05-22T19:57:12.529Z,58.47
2019-05-22T19:59:43.172Z,58.70
2019-05-22T20:02:12.934Z,58.57
2019-05-22T20:04:43.110Z,58.93
2019-05-22T20:07:14.314Z,59.19
2019-05-22T20:09:44.325Z,58.40
2019-05-22T20:12:14.839Z,59.08
2019-05-22T20:14:44.666Z,59.57
2019-05-22T20:17:14.575Z,59.49
2019-05-22T20:19:44.566Z,61.05
2019-05-22T20:22:16.240Z,61.15
2019-05-22T20:24:47.618Z,61.34
2019-05-22T20:27:17.477Z,61.97
2019-05-22T20:29:47.456Z,63.36
2019-05-22T20:32:17.191Z,62.61
2019-05-22T20:34:47.662Z,62.52
2019-05-22T20:37:18.298Z,62.53
2019-05-22T20:39:50.009Z,62.13
2019-05-22T20:42:22.111Z,62.39
2019-05-22T20:44:52.603Z,62.78
2019-05-22T20:47:27.066Z,62.95
2019-05-22T20:49:57.538Z,62.91
2019-05-22T20:52:30.269Z,62.36
2019-05-22T20:55:00.650Z,63.68
2019-05-22T20:57:32.646Z,63.58
2019-05-22T21:00:03.384Z,63.53
2019-05-22T21:02:34.446Z,63.04
2019-05-22T21:05:06.893Z,63.57
2019-05-22T21:07:40.991Z,63.60
2019-05-22T21:10:11.600Z,63.62
2019-05-22T21:12:43.441Z,63.88
2019-05-22T21:15:14.263Z,64.20
2019-05-22T21:17:47.180Z,65.26
2019-05-22T21:20:18.688Z,64.63
2019-05-22T21:22:50.285Z,64.63
2019-05-22T21:25:20.066Z,64.16
2019-05-22T21:27:51.651Z,64.47
2019-05-22T21:30:23.330Z,65.11
2019-05-22T21:32:55.165Z,65.60
2019-05-22T21:35:25.154Z,66.02
2019-05-22T21:37:55.795Z,66.45
2019-05-22T21:40:26.558Z,67.00
2019-05-22T21:42:56.566Z,67.14
2019-05-22T21:45:26.846Z,66.86
2019-05-22T21:47:56.692Z,67.18
2019-05-22T21:50:27.182Z,67.50
2019-05-22T21:52:57.223Z,67.56
2019-05-22T21:55:27.775Z,67.84
2019-05-22T21:57:58.149Z,68.39
2019-05-22T22:00:40.690Z,68.72
2019-05-22T22:03:13.729Z,68.85
2019-05-22T22:05:44.848Z,69.21
2019-05-22T22:08:14.610Z,69.53
2019-05-22T22:10:44.884Z,68.92
2019-05-22T22:13:15.503Z,69.40
2019-05-22T22:15:45.549Z,70.00
2019-05-22T22:18:15.581Z,70.39
2019-05-22T22:20:45.902Z,69.77
2019-05-22T22:23:17.885Z,69.94
2019-05-22T22:25:48.688Z,70.46
2019-05-22T22:28:53.359Z,70.29
2019-05-22T22:31:24.919Z,70.22
2019-05-22T22:34:02.412Z,70.57
2019-05-22T22:36:32.631Z,70.43
2019-05-22T22:39:03.201Z,70.79
2019-05-22T22:41:33.210Z,70.67
2019-05-22T22:44:05.554Z,70.92
2019-05-22T22:46:40.164Z,71.50
2019-05-22T22:49:15.383Z,70.78
2019-05-22T22:51:46.971Z,70.73
2019-05-22T22:54:16.929Z,70.88
2019-05-22T22:56:47.563Z,71.51
2019-05-22T22:59:17.573Z,71.78
2019-05-22T23:01:52.278Z,72.17
2019-05-22T23:04:27.095Z,72.48
2019-05-22T23:06:58.091Z,72.82
2019-05-22T23:09:29.660Z,72.60
2019-05-22T23:12:00.770Z,72.86
2019-05-22T23:14:31.201Z,72.67
2019-05-22T23:17:00.945Z,72.75
2019-05-22T23:19:32.519Z,72.96
2019-05-22T23:22:01.579Z,73.02
2019-05-22T23:24:32.942Z,73.59
2019-05-22T23:27:02.690Z,73.47
2019-05-22T23:29:32.928Z,73.57
2019-05-22T23:32:04.098Z,73.93
2019-05-22T23:34:34.378Z,73.77
2019-05-22T23:37:05.969Z,74.22
2019-05-22T23:39:36.497Z,74.78
2019-05-22T23:42:12.484Z,74.75
2019-05-22T23:44:42.821Z,75.09
2019-05-22T23:47:13.096Z,75.25
2019-05-22T23:49:43.965Z,75.27
2019-05-22T23:52:15.363Z,75.02
2019-05-22T23:54:45.999Z,75.48
2019-05-22T23:57:16.884Z,75.76
2019-05-22T23:59:49.667Z,76.03
